sensor_id;sensor_type;location;lat;lon;timestamp;pressure;altitude;pressure_sealevel;temperature;humidity
64158;BME280;50449;51.528;5.076;2022-09-17T00:00:19;101312.34;;;15.54;60.04
64158;BME280;50449;51.528;5.076;2022-09-17T00:02:49;101323.50;;;15.52;59.91
64158;BME280;50449;51.528;5.076;2022-09-17T00:05:22;101337.94;;;15.53;59.98
64158;BME280;50449;51.528;5.076;2022-09-17T00:07:49;101337.38;;;15.51;60.15
64158;BME280;50449;51.528;5.076;2022-09-17T00:10:14;101334.09;;;15.49;59.85
64158;BME280;50449;51.528;5.076;2022-09-17T00:12:40;101325.91;;;15.49;60.05
64158;BME280;50449;51.528;5.076;2022-09-17T00:15:06;101335.19;;;15.48;60.08
64158;BME280;50449;51.528;5.076;2022-09-17T00:17:31;101334.38;;;15.47;60.07
64158;BME280;50449;51.528;5.076;2022-09-17T00:19:57;101325.63;;;15.45;60.26
64158;BME280;50449;51.528;5.076;2022-09-17T00:22:22;101330.25;;;15.45;60.04
64158;BME280;50449;51.528;5.076;2022-09-17T00:24:48;101328.59;;;15.44;60.03
64158;BME280;50449;51.528;5.076;2022-09-17T00:27:13;101325.88;;;15.44;60.00
64158;BME280;50449;51.528;5.076;2022-09-17T00:29:39;101324.50;;;15.41;59.98
64158;BME280;50449;51.528;5.076;2022-09-17T00:32:05;101321.78;;;15.41;60.07
64158;BME280;50449;51.528;5.076;2022-09-17T00:34:30;101326.41;;;15.41;59.94
64158;BME280;50449;51.528;5.076;2022-09-17T00:36:56;101328.31;;;15.40;60.27
64158;BME280;50449;51.528;5.076;2022-09-17T00:39:21;101332.09;;;15.39;60.20
64158;BME280;50449;51.528;5.076;2022-09-17T00:41:46;101327.75;;;15.38;60.16
64158;BME280;50449;51.528;5.076;2022-09-17T00:44:38;101326.94;;;15.38;59.94
64158;BME280;50449;51.528;5.076;2022-09-17T00:47:04;101334.53;;;15.35;60.20
64158;BME280;50449;51.528;5.076;2022-09-17T00:49:31;101345.44;;;15.35;60.13
64158;BME280;50449;51.528;5.076;2022-09-17T00:52:18;101349.22;;;15.34;59.90
64158;BME280;50449;51.528;5.076;2022-09-17T00:54:52;101339.41;;;15.33;60.32
64158;BME280;50449;51.528;5.076;2022-09-17T00:57:19;101342.38;;;15.32;60.16
64158;BME280;50449;51.528;5.076;2022-09-17T00:59:44;101342.38;;;15.32;60.00
64158;BME280;50449;51.528;5.076;2022-09-17T01:02:10;101346.19;;;15.31;60.23
64158;BME280;50449;51.528;5.076;2022-09-17T01:04:35;101342.66;;;15.30;60.33
64158;BME280;50449;51.528;5.076;2022-09-17T01:21:36;101347.25;;;15.25;59.98
64158;BME280;50449;51.528;5.076;2022-09-17T01:24:26;101343.97;;;15.23;60.21
64158;BME280;50449;51.528;5.076;2022-09-17T01:29:58;101352.66;;;15.20;60.25
64158;BME280;50449;51.528;5.076;2022-09-17T01:32:46;101354.53;;;15.19;60.26
64158;BME280;50449;51.528;5.076;2022-09-17T01:44:02;101351.50;;;15.15;60.24
64158;BME280;50449;51.528;5.076;2022-09-17T01:46:37;101358.88;;;15.15;60.33
64158;BME280;50449;51.528;5.076;2022-09-17T01:49:06;101353.66;;;15.13;59.97
64158;BME280;50449;51.528;5.076;2022-09-17T01:51:38;101356.38;;;15.13;60.38
64158;BME280;50449;51.528;5.076;2022-09-17T01:54:21;101350.94;;;15.13;60.29
64158;BME280;50449;51.528;5.076;2022-09-17T01:57:13;101345.50;;;15.13;60.20
64158;BME280;50449;51.528;5.076;2022-09-17T01:59:44;101345.50;;;15.13;60.29
64158;BME280;50449;51.528;5.076;2022-09-17T02:02:22;101348.50;;;15.12;60.30
64158;BME280;50449;51.528;5.076;2022-09-17T02:05:07;101346.84;;;15.11;60.24
64158;BME280;50449;51.528;5.076;2022-09-17T02:07:39;101353.09;;;15.11;60.37
64158;BME280;50449;51.528;5.076;2022-09-17T02:10:16;101351.47;;;15.10;60.11
64158;BME280;50449;51.528;5.076;2022-09-17T02:12:45;101349.84;;;15.09;60.24
64158;BME280;50449;51.528;5.076;2022-09-17T02:15:24;101345.47;;;15.08;60.23
64158;BME280;50449;51.528;5.076;2022-09-17T02:17:54;101341.69;;;15.09;60.50
64158;BME280;50449;51.528;5.076;2022-09-17T02:20:27;101348.19;;;15.08;60.41
64158;BME280;50449;51.528;5.076;2022-09-17T02:22:59;101353.63;;;15.08;60.30
64158;BME280;50449;51.528;5.076;2022-09-17T02:30:22;101345.97;;;15.05;60.17
64158;BME280;50449;51.528;5.076;2022-09-17T02:32:47;101354.97;;;15.06;60.24
64158;BME280;50449;51.528;5.076;2022-09-17T02:35:14;101348.69;;;15.05;60.18
64158;BME280;50449;51.528;5.076;2022-09-17T02:37:41;101347.88;;;15.05;60.40
64158;BME280;50449;51.528;5.076;2022-09-17T02:40:07;101356.28;;;15.03;60.15
64158;BME280;50449;51.528;5.076;2022-09-17T02:43:12;101354.38;;;15.04;60.38
64158;BME280;50449;51.528;5.076;2022-09-17T02:48:45;101361.16;;;15.01;60.50
64158;BME280;50449;51.528;5.076;2022-09-17T02:59:40;101379.91;;;14.98;60.52
64158;BME280;50449;51.528;5.076;2022-09-17T03:02:21;101378.25;;;14.97;60.57
64158;BME280;50449;51.528;5.076;2022-09-17T03:04:49;101378.53;;;14.95;60.54
64158;BME280;50449;51.528;5.076;2022-09-17T03:07:16;101381.25;;;14.95;60.40
64158;BME280;50449;51.528;5.076;2022-09-17T03:09:42;101377.72;;;14.95;60.41
64158;BME280;50449;51.528;5.076;2022-09-17T03:12:08;101380.44;;;14.95;60.23
64158;BME280;50449;51.528;5.076;2022-09-17T03:14:34;101381.50;;;14.93;60.33
64158;BME280;50449;51.528;5.076;2022-09-17T03:16:59;101376.31;;;14.92;60.22
64158;BME280;50449;51.528;5.076;2022-09-17T03:19:25;101377.13;;;14.92;60.38
64158;BME280;50449;51.528;5.076;2022-09-17T03:21:52;101377.13;;;14.92;60.26
64158;BME280;50449;51.528;5.076;2022-09-17T03:24:17;101367.31;;;14.91;60.54
64158;BME280;50449;51.528;5.076;2022-09-17T03:26:43;101364.59;;;14.91;60.35
64158;BME280;50449;51.528;5.076;2022-09-17T03:29:08;101357.53;;;14.90;60.38
64158;BME280;50449;51.528;5.076;2022-09-17T03:31:34;101355.91;;;14.89;60.46
64158;BME280;50449;51.528;5.076;2022-09-17T03:33:59;101357.78;;;14.89;60.20
64158;BME280;50449;51.528;5.076;2022-09-17T03:36:24;101358.63;;;14.89;60.16
64158;BME280;50449;51.528;5.076;2022-09-17T03:38:55;101348.81;;;14.88;60.51
64158;BME280;50449;51.528;5.076;2022-09-17T03:41:20;101355.31;;;14.87;60.47
64158;BME280;50449;51.528;5.076;2022-09-17T03:43:46;101356.38;;;14.86;60.40
64158;BME280;50449;51.528;5.076;2022-09-17T03:46:11;101364.53;;;14.86;60.26
64158;BME280;50449;51.528;5.076;2022-09-17T03:48:36;101361.81;;;14.86;60.40
64158;BME280;50449;51.528;5.076;2022-09-17T03:51:04;101362.09;;;14.85;60.35
64158;BME280;50449;51.528;5.076;2022-09-17T03:53:30;101366.72;;;14.84;60.29
64158;BME280;50449;51.528;5.076;2022-09-17T03:56:00;101370.50;;;14.83;60.14
64158;BME280;50449;51.528;5.076;2022-09-17T03:58:27;101368.88;;;14.82;60.41
64158;BME280;50449;51.528;5.076;2022-09-17T04:00:52;101366.97;;;14.83;60.08
64158;BME280;50449;51.528;5.076;2022-09-17T04:03:19;101359.06;;;14.81;60.42
64158;BME280;50449;51.528;5.076;2022-09-17T04:05:45;101356.34;;;14.81;60.46
64158;BME280;50449;51.528;5.076;2022-09-17T04:08:11;101363.69;;;14.81;60.25
64158;BME280;50449;51.528;5.076;2022-09-17T04:10:36;101355.78;;;14.79;60.24
64158;BME280;50449;51.528;5.076;2022-09-17T04:13:02;101359.34;;;14.80;60.28
64158;BME280;50449;51.528;5.076;2022-09-17T04:15:27;101366.69;;;14.79;60.51
64158;BME280;50449;51.528;5.076;2022-09-17T04:17:56;101365.81;;;14.79;60.23
64158;BME280;50449;51.528;5.076;2022-09-17T04:20:23;101368.81;;;14.77;60.41
64158;BME280;50449;51.528;5.076;2022-09-17T04:22:49;101370.72;;;14.77;60.33
64158;BME280;50449;51.528;5.076;2022-09-17T04:25:14;101375.31;;;14.76;60.34
64158;BME280;50449;51.528;5.076;2022-09-17T04:27:39;101382.66;;;14.76;60.20
64158;BME280;50449;51.528;5.076;2022-09-17T04:30:05;101380.22;;;14.74;60.20
64158;BME280;50449;51.528;5.076;2022-09-17T04:32:31;101378.31;;;14.75;60.29
64158;BME280;50449;51.528;5.076;2022-09-17T04:34:56;101382.09;;;14.74;60.22
64158;BME280;50449;51.528;5.076;2022-09-17T04:37:21;101384.81;;;14.74;60.45
64158;BME280;50449;51.528;5.076;2022-09-17T04:39:47;101388.63;;;14.73;60.37
64158;BME280;50449;51.528;5.076;2022-09-17T04:42:14;101385.09;;;14.72;59.99
64158;BME280;50449;51.528;5.076;2022-09-17T04:44:39;101389.69;;;14.71;60.08
64158;BME280;50449;51.528;5.076;2022-09-17T04:47:05;101382.59;;;14.70;60.25
64158;BME280;50449;51.528;5.076;2022-09-17T04:49:30;101376.34;;;14.70;60.17
64158;BME280;50449;51.528;5.076;2022-09-17T04:51:57;101377.41;;;14.69;60.56
64158;BME280;50449;51.528;5.076;2022-09-17T04:54:22;101384.75;;;14.68;60.35
64158;BME280;50449;51.528;5.076;2022-09-17T04:56:48;101381.22;;;14.68;60.38
64158;BME280;50449;51.528;5.076;2022-09-17T04:59:13;101377.94;;;14.66;60.17
64158;BME280;50449;51.528;5.076;2022-09-17T05:01:39;101381.47;;;14.66;60.30
64158;BME280;50449;51.528;5.076;2022-09-17T05:04:04;101389.63;;;14.66;60.26
64158;BME280;50449;51.528;5.076;2022-09-17T05:06:30;101390.69;;;14.65;60.20
64158;BME280;50449;51.528;5.076;2022-09-17T05:08:55;101383.63;;;14.64;60.10
64158;BME280;50449;51.528;5.076;2022-09-17T05:11:20;101388.22;;;14.64;60.29
64158;BME280;50449;51.528;5.076;2022-09-17T05:13:46;101389.56;;;14.61;60.15
64158;BME280;50449;51.528;5.076;2022-09-17T05:16:11;101397.72;;;14.61;60.47
64158;BME280;50449;51.528;5.076;2022-09-17T05:18:36;101396.91;;;14.61;60.16
64158;BME280;50449;51.528;5.076;2022-09-17T05:21:02;101398.81;;;14.60;60.12
64158;BME280;50449;51.528;5.076;2022-09-17T05:23:27;101403.66;;;14.58;60.25
64158;BME280;50449;51.528;5.076;2022-09-17T05:25:57;101401.75;;;14.59;60.20
64158;BME280;50449;51.528;5.076;2022-09-17T05:28:23;101404.75;;;14.57;60.47
64158;BME280;50449;51.528;5.076;2022-09-17T05:30:48;101407.47;;;14.57;60.20
64158;BME280;50449;51.528;5.076;2022-09-17T05:33:13;101402.28;;;14.56;60.39
64158;BME280;50449;51.528;5.076;2022-09-17T05:35:39;101401.47;;;14.55;60.19
64158;BME280;50449;51.528;5.076;2022-09-17T05:38:05;101409.63;;;14.55;59.96
64158;BME280;50449;51.528;5.076;2022-09-17T05:40:32;101404.19;;;14.55;60.20
64158;BME280;50449;51.528;5.076;2022-09-17T05:43:02;101405.47;;;14.53;60.07
64158;BME280;50449;51.528;5.076;2022-09-17T05:45:28;101419.91;;;14.53;60.54
64158;BME280;50449;51.528;5.076;2022-09-17T05:47:57;101413.63;;;14.53;60.25
64158;BME280;50449;51.528;5.076;2022-09-17T05:50:24;101418.25;;;14.52;60.48
64158;BME280;50449;51.528;5.076;2022-09-17T05:52:50;101429.94;;;14.53;60.07
64158;BME280;50449;51.528;5.076;2022-09-17T05:55:17;101435.88;;;14.49;60.19
64158;BME280;50449;51.528;5.076;2022-09-17T05:57:42;101432.09;;;14.50;60.26
64158;BME280;50449;51.528;5.076;2022-09-17T06:00:08;101425.00;;;14.49;60.07
64158;BME280;50449;51.528;5.076;2022-09-17T06:02:34;101426.34;;;14.47;60.15
64158;BME280;50449;51.528;5.076;2022-09-17T06:05:00;101438.03;;;14.47;60.36
64158;BME280;50449;51.528;5.076;2022-09-17T06:07:27;101434.50;;;14.47;60.27
64158;BME280;50449;51.528;5.076;2022-09-17T06:09:52;101436.41;;;14.46;60.49
64158;BME280;50449;51.528;5.076;2022-09-17T06:12:17;101443.72;;;14.46;60.39
64158;BME280;50449;51.528;5.076;2022-09-17T06:14:43;101434.75;;;14.45;60.16
64158;BME280;50449;51.528;5.076;2022-09-17T06:17:08;101438.53;;;14.44;60.09
64158;BME280;50449;51.528;5.076;2022-09-17T06:19:33;101446.69;;;14.44;60.51
64158;BME280;50449;51.528;5.076;2022-09-17T06:21:59;101443.97;;;14.44;60.36
64158;BME280;50449;51.528;5.076;2022-09-17T06:24:24;101448.59;;;14.44;60.59
64158;BME280;50449;51.528;5.076;2022-09-17T06:26:53;101446.94;;;14.43;60.32
64158;BME280;50449;51.528;5.076;2022-09-17T06:29:19;101449.66;;;14.43;60.23
64158;BME280;50449;51.528;5.076;2022-09-17T06:31:47;101453.47;;;14.42;60.17
64158;BME280;50449;51.528;5.076;2022-09-17T06:34:12;101451.78;;;14.41;60.19
64158;BME280;50449;51.528;5.076;2022-09-17T06:36:38;101456.19;;;14.42;60.43
64158;BME280;50449;51.528;5.076;2022-09-17T06:39:03;101471.66;;;14.41;60.44
64158;BME280;50449;51.528;5.076;2022-09-17T06:41:29;101475.44;;;14.40;60.36
64158;BME280;50449;51.528;5.076;2022-09-17T06:43:54;101467.28;;;14.40;60.03
64158;BME280;50449;51.528;5.076;2022-09-17T06:46:20;101462.94;;;14.39;60.38
64158;BME280;50449;51.528;5.076;2022-09-17T06:48:45;101462.94;;;14.39;60.70
64158;BME280;50449;51.528;5.076;2022-09-17T06:51:12;101452.31;;;14.38;60.56
64158;BME280;50449;51.528;5.076;2022-09-17T06:53:39;101446.88;;;14.38;60.47
64158;BME280;50449;51.528;5.076;2022-09-17T06:56:05;101452.31;;;14.38;60.39
64158;BME280;50449;51.528;5.076;2022-09-17T06:58:33;101452.31;;;14.38;60.63
64158;BME280;50449;51.528;5.076;2022-09-17T07:01:01;101448.50;;;14.39;60.73
64158;BME280;50449;51.528;5.076;2022-09-17T07:03:28;101453.13;;;14.38;60.52
64158;BME280;50449;51.528;5.076;2022-09-17T07:05:54;101450.41;;;14.38;60.60
64158;BME280;50449;51.528;5.076;2022-09-17T07:08:19;101459.63;;;14.37;60.71
64158;BME280;50449;51.528;5.076;2022-09-17T07:10:45;101462.34;;;14.37;60.53
64158;BME280;50449;51.528;5.076;2022-09-17T07:13:10;101482.19;;;14.38;60.61
64158;BME280;50449;51.528;5.076;2022-09-17T07:15:35;101499.59;;;14.37;60.40
64158;BME280;50449;51.528;5.076;2022-09-17T07:18:10;101498.50;;;14.38;60.82
64158;BME280;50449;51.528;5.076;2022-09-17T07:20:36;101488.72;;;14.37;60.83
64158;BME280;50449;51.528;5.076;2022-09-17T07:23:01;101478.09;;;14.35;60.82
64158;BME280;50449;51.528;5.076;2022-09-17T07:25:27;101472.66;;;14.35;60.56
64158;BME280;50449;51.528;5.076;2022-09-17T07:27:52;101468.03;;;14.36;60.61
64158;BME280;50449;51.528;5.076;2022-09-17T07:30:19;101461.78;;;14.35;60.78
64158;BME280;50449;51.528;5.076;2022-09-17T07:32:45;101452.00;;;14.34;60.82
64158;BME280;50449;51.528;5.076;2022-09-17T07:35:10;101456.34;;;14.35;61.02
64158;BME280;50449;51.528;5.076;2022-09-17T07:37:36;101463.69;;;14.35;60.98
64158;BME280;50449;51.528;5.076;2022-09-17T07:40:02;101461.78;;;14.35;60.84
64158;BME280;50449;51.528;5.076;2022-09-17T07:42:29;101467.22;;;14.35;60.86
64158;BME280;50449;51.528;5.076;2022-09-17T07:44:57;101470.75;;;14.36;60.80
64158;BME280;50449;51.528;5.076;2022-09-17T07:47:22;101478.91;;;14.36;60.91
64158;BME280;50449;51.528;5.076;2022-09-17T07:49:47;101464.25;;;14.37;60.87
64158;BME280;50449;51.528;5.076;2022-09-17T07:52:13;101461.53;;;14.37;60.75
64158;BME280;50449;51.528;5.076;2022-09-17T07:54:38;101458.56;;;14.38;60.86
64158;BME280;50449;51.528;5.076;2022-09-17T07:57:04;101460.47;;;14.38;60.79
64158;BME280;50449;51.528;5.076;2022-09-17T07:59:29;101462.34;;;14.37;60.84
64158;BME280;50449;51.528;5.076;2022-09-17T08:01:54;101460.47;;;14.38;61.15
64158;BME280;50449;51.528;5.076;2022-09-17T08:04:20;101455.84;;;14.38;60.90
64158;BME280;50449;51.528;5.076;2022-09-17T08:06:46;101453.94;;;14.39;60.77
64158;BME280;50449;51.528;5.076;2022-09-17T08:09:15;101464.81;;;14.39;60.95
64158;BME280;50449;51.528;5.076;2022-09-17T08:11:41;101457.22;;;14.41;60.91
64158;BME280;50449;51.528;5.076;2022-09-17T08:14:12;101454.50;;;14.41;60.86
64158;BME280;50449;51.528;5.076;2022-09-17T08:16:38;101459.94;;;14.41;61.14
64158;BME280;50449;51.528;5.076;2022-09-17T08:19:04;101471.41;;;14.43;60.79
64158;BME280;50449;51.528;5.076;2022-09-17T08:21:29;101470.34;;;14.44;61.56
64158;BME280;50449;51.528;5.076;2022-09-17T08:23:54;101473.88;;;14.44;61.05
64158;BME280;50449;51.528;5.076;2022-09-17T08:26:21;101473.59;;;14.46;60.75
64158;BME280;50449;51.528;5.076;2022-09-17T08:28:49;101463.59;;;14.46;60.72
64158;BME280;50449;51.528;5.076;2022-09-17T08:31:17;101464.41;;;14.47;60.65
64158;BME280;50449;51.528;5.076;2022-09-17T08:33:43;101473.38;;;14.47;60.85
64158;BME280;50449;51.528;5.076;2022-09-17T08:36:10;101480.19;;;14.50;60.77
64158;BME280;50449;51.528;5.076;2022-09-17T08:38:36;101478.28;;;14.50;61.14
64158;BME280;50449;51.528;5.076;2022-09-17T08:44:20;101474.53;;;14.52;60.73
64158;BME280;50449;51.528;5.076;2022-09-17T08:49:51;101463.41;;;14.53;60.96
64158;BME280;50449;51.528;5.076;2022-09-17T08:58:19;101468.59;;;14.55;60.78
64158;BME280;50449;51.528;5.076;2022-09-17T09:00:55;101466.72;;;14.55;60.86
64158;BME280;50449;51.528;5.076;2022-09-17T09:06:06;101469.19;;;14.57;60.93
64158;BME280;50449;51.528;5.076;2022-09-17T09:08:41;101473.53;;;14.58;61.30
64158;BME280;50449;51.528;5.076;2022-09-17T09:11:16;101475.16;;;14.59;61.28
64158;BME280;50449;51.528;5.076;2022-09-17T09:14:28;101481.19;;;14.61;61.21
64158;BME280;50449;51.528;5.076;2022-09-17T09:16:37;101471.69;;;14.63;61.30
64158;BME280;50449;51.528;5.076;2022-09-17T09:21:53;101475.31;;;14.69;61.25
64158;BME280;50449;51.528;5.076;2022-09-17T09:24:23;101472.34;;;14.70;61.30
64158;BME280;50449;51.528;5.076;2022-09-17T09:27:13;101483.78;;;14.73;61.37
64158;BME280;50449;51.528;5.076;2022-09-17T09:29:47;101483.28;;;14.76;61.67
64158;BME280;50449;51.528;5.076;2022-09-17T09:34:53;101481.72;;;14.80;61.68
64158;BME280;50449;51.528;5.076;2022-09-17T09:37:25;101486.06;;;14.81;61.64
64158;BME280;50449;51.528;5.076;2022-09-17T09:39:54;101491.00;;;14.84;61.58
64158;BME280;50449;51.528;5.076;2022-09-17T09:44:55;101479.34;;;14.88;61.60
64158;BME280;50449;51.528;5.076;2022-09-17T09:47:28;101481.56;;;14.91;61.66
64158;BME280;50449;51.528;5.076;2022-09-17T09:52:42;101496.31;;;14.96;62.02
64158;BME280;50449;51.528;5.076;2022-09-17T09:55:31;101488.72;;;14.98;61.64
64158;BME280;50449;51.528;5.076;2022-09-17T09:58:20;101488.22;;;15.01;61.80
64158;BME280;50449;51.528;5.076;2022-09-17T10:00:49;101481.44;;;15.03;61.47
64158;BME280;50449;51.528;5.076;2022-09-17T10:03:19;101491.00;;;15.06;61.67
64158;BME280;50449;51.528;5.076;2022-09-17T10:06:12;101475.25;;;15.08;61.32
64158;BME280;50449;51.528;5.076;2022-09-17T10:08:40;101480.16;;;15.11;61.33
64158;BME280;50449;51.528;5.076;2022-09-17T10:13:39;101474.22;;;15.14;61.11
64158;BME280;50449;51.528;5.076;2022-09-17T10:16:24;101485.44;;;15.18;61.07
64158;BME280;50449;51.528;5.076;2022-09-17T10:19:17;101480.56;;;15.20;60.94
64158;BME280;50449;51.528;5.076;2022-09-17T10:21:43;101470.22;;;15.22;60.86
64158;BME280;50449;51.528;5.076;2022-09-17T10:24:29;101479.75;;;15.24;61.34
64158;BME280;50449;51.528;5.076;2022-09-17T10:27:01;101480.34;;;15.26;61.35
64158;BME280;50449;51.528;5.076;2022-09-17T10:29:28;101480.66;;;15.30;61.30
64158;BME280;50449;51.528;5.076;2022-09-17T10:31:55;101476.34;;;15.34;61.35
64158;BME280;50449;51.528;5.076;2022-09-17T10:34:26;101472.56;;;15.35;61.12
64158;BME280;50449;51.528;5.076;2022-09-17T10:36:52;101478.53;;;15.37;61.10
64158;BME280;50449;51.528;5.076;2022-09-17T10:41:56;101481.63;;;15.46;61.17
64158;BME280;50449;51.528;5.076;2022-09-17T10:44:23;101490.63;;;15.46;61.11
64158;BME280;50449;51.528;5.076;2022-09-17T10:46:50;101515.44;;;15.50;61.04
64158;BME280;50449;51.528;5.076;2022-09-17T10:52:23;101500.50;;;15.52;61.50
64158;BME280;50449;51.528;5.076;2022-09-17T10:57:26;101483.34;;;15.57;61.47
64158;BME280;50449;51.528;5.076;2022-09-17T11:00:08;101487.47;;;15.59;61.34
64158;BME280;50449;51.528;5.076;2022-09-17T11:05:39;101485.06;;;15.63;61.44
64158;BME280;50449;51.528;5.076;2022-09-17T11:08:28;101487.50;;;15.65;61.68
64158;BME280;50449;51.528;5.076;2022-09-17T11:11:09;101488.09;;;15.67;61.35
64158;BME280;50449;51.528;5.076;2022-09-17T11:13:53;101478.34;;;15.71;61.51
64158;BME280;50449;51.528;5.076;2022-09-17T11:16:30;101477.25;;;15.72;61.33
64158;BME280;50449;51.528;5.076;2022-09-17T11:24:10;101464.78;;;15.76;61.84
64158;BME280;50449;51.528;5.076;2022-09-17T11:26:51;101462.63;;;15.78;61.66
64158;BME280;50449;51.528;5.076;2022-09-17T11:34:59;101509.19;;;15.76;61.56
64158;BME280;50449;51.528;5.076;2022-09-17T11:37:38;101519.00;;;15.77;61.33
64158;BME280;50449;51.528;5.076;2022-09-17T11:42:38;101467.78;;;15.79;61.68
64158;BME280;50449;51.528;5.076;2022-09-17T11:45:19;101461.28;;;15.81;61.83
64158;BME280;50449;51.528;5.076;2022-09-17T11:48:00;101469.19;;;15.82;61.36
64158;BME280;50449;51.528;5.076;2022-09-17T11:50:31;101462.66;;;15.83;61.62
64158;BME280;50449;51.528;5.076;2022-09-17T11:53:07;101460.50;;;15.85;61.76
64158;BME280;50449;51.528;5.076;2022-09-17T11:55:48;101456.44;;;15.88;61.91
64158;BME280;50449;51.528;5.076;2022-09-17T12:03:59;101457.81;;;15.90;61.82
64158;BME280;50449;51.528;5.076;2022-09-17T12:06:39;101454.00;;;15.91;61.94
64158;BME280;50449;51.528;5.076;2022-09-17T12:09:24;101454.81;;;15.92;62.00
64158;BME280;50449;51.528;5.076;2022-09-17T12:14:50;101443.66;;;15.93;61.75
64158;BME280;50449;51.528;5.076;2022-09-17T12:17:22;101434.69;;;15.93;62.07
64158;BME280;50449;51.528;5.076;2022-09-17T12:19:53;101444.25;;;15.95;62.05
64158;BME280;50449;51.528;5.076;2022-09-17T12:22:34;101446.69;;;15.97;61.95
64158;BME280;50449;51.528;5.076;2022-09-17T12:25:02;101440.41;;;15.96;61.58
64158;BME280;50449;51.528;5.076;2022-09-17T12:27:46;101446.69;;;15.97;61.66
64158;BME280;50449;51.528;5.076;2022-09-17T12:30:21;101442.88;;;15.98;61.78
64158;BME280;50449;51.528;5.076;2022-09-17T12:32:58;101435.53;;;15.98;61.72
64158;BME280;50449;51.528;5.076;2022-09-17T12:41:57;101431.75;;;16.05;62.08
64158;BME280;50449;51.528;5.076;2022-09-17T12:44:53;101436.94;;;16.06;61.69
64158;BME280;50449;51.528;5.076;2022-09-17T12:50:18;101451.38;;;16.07;61.53
64158;BME280;50449;51.528;5.076;2022-09-17T13:00:37;101462.59;;;16.10;61.34
64158;BME280;50449;51.528;5.076;2022-09-17T13:03:17;101455.25;;;16.11;60.91
64158;BME280;50449;51.528;5.076;2022-09-17T13:14:38;101442.47;;;16.16;61.07
64158;BME280;50449;51.528;5.076;2022-09-17T13:22:48;101439.19;;;16.19;60.98
64158;BME280;50449;51.528;5.076;2022-09-17T13:25:16;101447.13;;;16.21;61.15
64158;BME280;50449;51.528;5.076;2022-09-17T13:27:43;101434.31;;;16.21;60.93
64158;BME280;50449;51.528;5.076;2022-09-17T13:30:16;101441.13;;;16.24;60.88
64158;BME280;50449;51.528;5.076;2022-09-17T13:32:44;101438.41;;;16.24;60.77
64158;BME280;50449;51.528;5.076;2022-09-17T13:40:31;101439.53;;;16.28;60.29
64158;BME280;50449;51.528;5.076;2022-09-17T13:43:10;101440.06;;;16.30;59.99
64158;BME280;50449;51.528;5.076;2022-09-17T13:48:29;101430.00;;;16.31;59.56
64158;BME280;50449;51.528;5.076;2022-09-17T13:50:55;101442.56;;;16.32;59.43
64158;BME280;50449;51.528;5.076;2022-09-17T13:53:24;101448.00;;;16.32;59.54
64158;BME280;50449;51.528;5.076;2022-09-17T14:08:49;101432.22;;;16.34;59.16
64158;BME280;50449;51.528;5.076;2022-09-17T14:19:27;101433.88;;;16.40;58.17
64158;BME280;50449;51.528;5.076;2022-09-17T14:24:36;101434.16;;;16.38;57.43
64158;BME280;50449;51.528;5.076;2022-09-17T14:30:19;101434.41;;;16.42;57.49
64158;BME280;50449;51.528;5.076;2022-09-17T14:33:10;101442.34;;;16.43;56.87
64158;BME280;50449;51.528;5.076;2022-09-17T14:35:48;101441.81;;;16.47;57.10
64158;BME280;50449;51.528;5.076;2022-09-17T14:38:23;101446.16;;;16.48;57.13
64158;BME280;50449;51.528;5.076;2022-09-17T14:41:05;101434.75;;;16.51;56.49
64158;BME280;50449;51.528;5.076;2022-09-17T14:46:29;101447.84;;;16.54;56.92
64158;BME280;50449;51.528;5.076;2022-09-17T14:49:23;101453.88;;;16.56;56.66
64158;BME280;50449;51.528;5.076;2022-09-17T14:51:50;101449.22;;;16.56;56.81
64158;BME280;50449;51.528;5.076;2022-09-17T14:54:17;101451.66;;;16.58;57.01
64158;BME280;50449;51.528;5.076;2022-09-17T14:56:50;101469.41;;;16.60;56.85
64158;BME280;50449;51.528;5.076;2022-09-17T14:59:27;101491.50;;;16.59;57.18
64158;BME280;50449;51.528;5.076;2022-09-17T15:01:53;101517.69;;;16.60;56.64
64158;BME280;50449;51.528;5.076;2022-09-17T15:04:24;101489.34;;;16.61;56.62
64158;BME280;50449;51.528;5.076;2022-09-17T15:06:51;101471.31;;;16.60;56.61
64158;BME280;50449;51.528;5.076;2022-09-17T15:09:24;101469.16;;;16.62;56.96
64158;BME280;50449;51.528;5.076;2022-09-17T15:11:54;101473.81;;;16.61;57.03
64158;BME280;50449;51.528;5.076;2022-09-17T15:14:32;101471.63;;;16.63;57.01
64158;BME280;50449;51.528;5.076;2022-09-17T15:17:02;101468.63;;;16.65;56.99
64158;BME280;50449;51.528;5.076;2022-09-17T15:19:32;101473.00;;;16.66;57.06
64158;BME280;50449;51.528;5.076;2022-09-17T15:22:08;101473.00;;;16.66;57.06
64158;BME280;50449;51.528;5.076;2022-09-17T15:32:30;101470.81;;;16.68;56.73
64158;BME280;50449;51.528;5.076;2022-09-17T15:37:47;101464.28;;;16.69;56.72
64158;BME280;50449;51.528;5.076;2022-09-17T15:40:15;101461.56;;;16.69;56.75
64158;BME280;50449;51.528;5.076;2022-09-17T15:42:48;101462.38;;;16.70;56.61
64158;BME280;50449;51.528;5.076;2022-09-17T15:45:20;101464.28;;;16.69;56.60
64158;BME280;50449;51.528;5.076;2022-09-17T15:47:55;101469.75;;;16.69;57.09
64158;BME280;50449;51.528;5.076;2022-09-17T15:50:32;101462.63;;;16.68;56.98
64158;BME280;50449;51.528;5.076;2022-09-17T15:55:36;101463.47;;;16.69;56.52
64158;BME280;50449;51.528;5.076;2022-09-17T15:58:05;101476.28;;;16.68;56.65
64158;BME280;50449;51.528;5.076;2022-09-17T16:00:43;101465.63;;;16.66;56.48
64158;BME280;50449;51.528;5.076;2022-09-17T16:08:46;101476.25;;;16.63;56.17
64158;BME280;50449;51.528;5.076;2022-09-17T16:11:16;101473.50;;;16.63;56.20
64158;BME280;50449;51.528;5.076;2022-09-17T16:13:41;101480.88;;;16.62;55.66
64158;BME280;50449;51.528;5.076;2022-09-17T16:16:13;101466.44;;;16.62;55.53